createdAt,value
2019-03-21T00:01:34.940Z,0.70
2019-03-21T00:04:05.820Z,0.50
2019-03-21T00:06:33.556Z,0.40
2019-03-21T00:09:01.490Z,0.40
2019-03-21T00:11:57.382Z,0.50
2019-03-21T00:14:55.204Z,0.50
2019-03-21T00:17:25.980Z,0.20
2019-03-21T00:19:53.733Z,0.00
2019-03-21T00:22:21.483Z,0.10
2019-03-21T00:24:49.210Z,0.20
2019-03-21T00:27:16.965Z,0.20
2019-03-21T00:29:44.700Z,0.20
2019-03-21T00:32:12.444Z,0.10
2019-03-21T00:34:40.177Z,0.00
2019-03-21T00:37:07.914Z,0.00
2019-03-21T00:39:35.669Z,-0.10
2019-03-21T00:42:03.416Z,-0.10
2019-03-21T00:44:31.340Z,-0.10
2019-03-21T00:46:59.084Z,-0.20
2019-03-21T00:49:26.874Z,-0.10
2019-03-21T00:51:54.854Z,-0.10
2019-03-21T00:54:22.714Z,-0.20
2019-03-21T00:56:50.440Z,-0.20
2019-03-21T00:59:18.173Z,-0.20
2019-03-21T01:01:46.035Z,-0.10
2019-03-21T01:04:13.775Z,-0.10
2019-03-21T01:06:41.508Z,-0.20
2019-03-21T01:09:10.745Z,-0.20
2019-03-21T01:11:38.477Z,-0.30
2019-03-21T01:14:06.209Z,-0.30
2019-03-21T01:16:33.954Z,-0.30
2019-03-21T01:19:01.715Z,-0.30
2019-03-21T01:21:29.473Z,-0.20
2019-03-21T01:23:57.213Z,-0.20
2019-03-21T01:26:24.952Z,-0.30
2019-03-21T01:28:52.687Z,-0.30
2019-03-21T01:31:20.436Z,-0.30
2019-03-21T01:33:48.200Z,-0.20
2019-03-21T01:36:16.258Z,-0.20
2019-03-21T01:38:44.035Z,-0.30
2019-03-21T01:41:11.768Z,-0.30
2019-03-21T01:43:39.724Z,-0.40
2019-03-21T01:46:09.260Z,-0.40
2019-03-21T01:48:37.109Z,-0.30
2019-03-21T01:51:04.856Z,-0.20
2019-03-21T01:53:32.713Z,-0.10
2019-03-21T01:56:00.468Z,-0.10
2019-03-21T01:58:28.237Z,-0.10
2019-03-21T02:00:56.098Z,-0.10
2019-03-21T02:03:23.868Z,-0.20
2019-03-21T02:05:51.606Z,-0.30
2019-03-21T02:08:19.363Z,-0.30
2019-03-21T02:10:48.799Z,-0.40
2019-03-21T02:13:16.556Z,-0.40
2019-03-21T02:15:44.299Z,-0.40
2019-03-21T02:18:12.047Z,-0.40
2019-03-21T02:20:39.788Z,-0.50
2019-03-21T02:23:07.574Z,-0.60
2019-03-21T02:25:35.328Z,-0.50
2019-03-21T02:28:03.204Z,-0.60
2019-03-21T02:30:32.689Z,-0.60
2019-03-21T02:33:03.870Z,-0.60
2019-03-21T02:35:31.974Z,-0.70
2019-03-21T02:37:59.821Z,-0.70
2019-03-21T02:40:27.563Z,-0.60
2019-03-21T02:42:55.326Z,-0.60
2019-03-21T02:45:23.336Z,-0.60
2019-03-21T02:47:51.078Z,-0.60
2019-03-21T02:50:21.792Z,-0.40
2019-03-21T02:52:49.540Z,-0.40
2019-03-21T02:55:17.320Z,-0.50
2019-03-21T02:57:45.074Z,-0.50
2019-03-21T03:00:15.906Z,-0.40
2019-03-21T03:02:43.965Z,-0.40
2019-03-21T03:05:15.509Z,-0.40
2019-03-21T03:07:43.253Z,-0.30
2019-03-21T03:10:12.677Z,-0.30
2019-03-21T03:12:40.467Z,-0.30
2019-03-21T03:15:21.797Z,-0.30
2019-03-21T03:17:40.118Z,-0.20
2019-03-21T03:20:09.875Z,-0.30
2019-03-21T03:22:37.624Z,-0.30
2019-03-21T03:25:06.131Z,-0.20
2019-03-21T03:27:34.000Z,0.00
2019-03-21T03:30:01.767Z,-0.10
2019-03-21T03:32:29.602Z,0.00
2019-03-21T03:34:57.353Z,0.00
2019-03-21T03:37:25.228Z,0.00
2019-03-21T03:39:52.963Z,-0.10
2019-03-21T03:42:20.806Z,-0.20
2019-03-21T03:44:48.550Z,-0.20
2019-03-21T03:47:16.284Z,-0.30
2019-03-21T03:49:44.012Z,-0.20
2019-03-21T03:52:11.753Z,-0.20
2019-03-21T03:54:39.497Z,-0.20
2019-03-21T03:57:07.354Z,-0.20
2019-03-21T03:59:35.100Z,-0.20
2019-03-21T04:02:02.947Z,-0.20
2019-03-21T04:04:30.797Z,-0.10
2019-03-21T04:06:58.552Z,0.00
2019-03-21T04:09:26.386Z,0.00
2019-03-21T04:11:54.230Z,-0.10
2019-03-21T04:14:22.026Z,-0.10
2019-03-21T04:16:49.829Z,0.00
2019-03-21T04:19:17.549Z,0.10
2019-03-21T04:21:45.333Z,-0.10
2019-03-21T04:24:13.068Z,-0.10
2019-03-21T04:26:40.907Z,0.00
2019-03-21T04:29:08.665Z,0.00
2019-03-21T04:31:36.404Z,-0.10
2019-03-21T04:34:05.248Z,-0.10
2019-03-21T04:36:32.996Z,0.00
2019-03-21T04:39:00.769Z,0.00
2019-03-21T04:41:28.605Z,0.00
2019-03-21T04:43:56.358Z,0.10
2019-03-21T04:46:24.088Z,0.10
2019-03-21T04:48:51.850Z,0.10
2019-03-21T04:51:19.596Z,0.00
2019-03-21T04:53:47.344Z,0.00
2019-03-21T04:56:15.097Z,-0.10
2019-03-21T04:58:42.853Z,-0.20
2019-03-21T05:01:10.642Z,-0.20
2019-03-21T05:03:38.385Z,-0.30
2019-03-21T05:06:06.137Z,-0.20
2019-03-21T05:08:33.987Z,-0.40
2019-03-21T05:11:01.735Z,-0.60
2019-03-21T05:13:29.500Z,-0.60
2019-03-21T05:15:57.232Z,-0.70
2019-03-21T05:18:28.736Z,-0.70
2019-03-21T05:20:56.525Z,-0.70
2019-03-21T05:23:24.297Z,-0.80
2019-03-21T05:25:52.137Z,-0.70
2019-03-21T05:28:19.905Z,-0.80
2019-03-21T05:30:56.809Z,-0.70
2019-03-21T05:33:24.561Z,-0.70
2019-03-21T05:35:52.514Z,-0.70
2019-03-21T05:38:20.376Z,-0.60
2019-03-21T05:40:48.130Z,-0.40
2019-03-21T05:43:18.897Z,-0.40
2019-03-21T05:45:46.624Z,-0.30
2019-03-21T05:48:14.385Z,-0.20
2019-03-21T05:50:42.138Z,-0.20
2019-03-21T05:53:09.893Z,-0.20
2019-03-21T05:55:37.677Z,-0.10
2019-03-21T05:58:05.413Z,0.00
2019-03-21T06:00:36.853Z,0.10
2019-03-21T06:03:06.953Z,0.20
2019-03-21T06:05:34.822Z,0.20
2019-03-21T06:08:06.269Z,0.30
2019-03-21T06:10:34.334Z,0.30
2019-03-21T06:13:02.173Z,0.50
2019-03-21T06:15:31.001Z,0.80
2019-03-21T06:18:31.218Z,1.10
2019-03-21T06:21:25.093Z,1.40
2019-03-21T06:24:24.477Z,1.90
2019-03-21T06:26:56.885Z,2.20
2019-03-21T06:29:24.663Z,2.30
2019-03-21T06:31:52.566Z,3.00
2019-03-21T06:34:20.289Z,3.70
2019-03-21T06:36:48.232Z,3.60
2019-03-21T06:39:16.047Z,3.80
2019-03-21T06:41:43.831Z,4.20
2019-03-21T06:44:11.702Z,5.00
2019-03-21T06:46:48.962Z,5.50
2019-03-21T06:49:09.207Z,5.90
2019-03-21T06:51:36.965Z,6.40
2019-03-21T06:54:04.816Z,7.00
2019-03-21T06:56:32.677Z,7.30
2019-03-21T06:59:00.452Z,7.30
2019-03-21T07:01:28.229Z,7.50
2019-03-21T07:04:06.613Z,7.30
2019-03-21T07:06:25.637Z,7.70
2019-03-21T07:08:53.399Z,7.90
2019-03-21T07:11:21.182Z,7.80
2019-03-21T07:13:48.942Z,8.10
2019-03-21T07:16:17.626Z,8.20
2019-03-21T07:18:45.393Z,8.20
2019-03-21T07:21:13.152Z,8.10
2019-03-21T07:23:40.916Z,8.00
2019-03-21T07:26:08.704Z,8.30
2019-03-21T07:28:38.499Z,8.80
2019-03-21T07:31:06.113Z,9.00
2019-03-21T07:33:33.861Z,9.40
2019-03-21T07:36:01.629Z,9.40
2019-03-21T07:38:29.418Z,9.30
2019-03-21T07:40:57.160Z,9.10
2019-03-21T07:43:24.913Z,9.20
2019-03-21T07:45:52.690Z,9.30
2019-03-21T07:48:20.447Z,9.00
2019-03-21T07:50:48.397Z,8.50
2019-03-21T07:53:16.271Z,8.30
2019-03-21T07:55:44.010Z,8.10
2019-03-21T07:58:11.661Z,8.10
2019-03-21T08:00:39.517Z,8.30
2019-03-21T08:03:07.285Z,8.70
2019-03-21T08:05:40.351Z,8.90
2019-03-21T08:08:04.710Z,9.00
2019-03-21T08:10:32.449Z,8.90
2019-03-21T08:13:00.192Z,9.10
2019-03-21T08:15:27.946Z,9.00
2019-03-21T08:17:55.693Z,9.10
2019-03-21T08:20:23.492Z,9.20
2019-03-21T08:22:51.292Z,9.40
2019-03-21T08:25:19.105Z,9.50
2019-03-21T08:27:46.880Z,9.30
2019-03-21T08:30:29.133Z,9.50
2019-03-21T08:32:56.876Z,9.50
2019-03-21T08:35:24.657Z,9.80
2019-03-21T08:37:52.408Z,10.20
2019-03-21T08:40:20.142Z,10.20
2019-03-21T08:42:47.906Z,10.70
2019-03-21T08:45:15.681Z,11.00
2019-03-21T08:47:43.401Z,11.30
2019-03-21T08:50:11.336Z,11.00
2019-03-21T08:52:39.073Z,10.70
2019-03-21T08:55:07.230Z,10.60
2019-03-21T08:57:35.020Z,10.60
2019-03-21T09:00:04.830Z,10.60
2019-03-21T09:02:32.566Z,10.70
2019-03-21T09:05:00.365Z,10.60
2019-03-21T09:07:28.245Z,10.90
2019-03-21T09:09:55.974Z,11.00
2019-03-21T09:12:23.820Z,11.30
2019-03-21T09:14:51.673Z,11.50
2019-03-21T09:17:19.405Z,11.60
2019-03-21T09:19:47.256Z,11.90
2019-03-21T09:22:16.065Z,12.00
2019-03-21T09:24:44.014Z,12.20
2019-03-21T09:27:11.768Z,12.60
2019-03-21T09:29:39.513Z,13.20
2019-03-21T09:32:07.247Z,13.10
2019-03-21T09:34:35.054Z,13.10
2019-03-21T09:37:04.062Z,12.80
2019-03-21T09:39:32.030Z,12.80
2019-03-21T09:41:59.776Z,12.70
2019-03-21T09:44:27.901Z,12.70
2019-03-21T09:46:55.680Z,12.50
2019-03-21T09:49:23.418Z,12.50
2019-03-21T09:51:51.178Z,12.50
2019-03-21T09:54:18.904Z,12.80
2019-03-21T09:56:46.652Z,13.10
2019-03-21T09:59:14.391Z,13.40
2019-03-21T10:01:42.110Z,13.70
2019-03-21T10:04:09.848Z,14.10
2019-03-21T10:06:37.593Z,13.50
2019-03-21T10:09:06.429Z,12.80
2019-03-21T10:11:34.372Z,12.90
2019-03-21T10:14:02.125Z,13.10
2019-03-21T10:16:29.869Z,12.90
2019-03-21T10:18:57.548Z,13.00
2019-03-21T10:21:25.336Z,13.10
2019-03-21T10:23:53.061Z,13.20
2019-03-21T10:26:20.811Z,13.30
2019-03-21T10:28:48.548Z,13.10
2019-03-21T10:31:16.282Z,13.20
2019-03-21T10:33:44.053Z,13.20
2019-03-21T10:36:11.825Z,13.50
2019-03-21T10:38:39.750Z,13.80
2019-03-21T10:41:07.500Z,13.90
2019-03-21T10:43:35.260Z,14.00
2019-03-21T10:46:03.117Z,13.20
2019-03-21T10:48:31.075Z,13.40
2019-03-21T10:50:58.801Z,13.90
2019-03-21T10:53:26.568Z,14.40
2019-03-21T10:55:54.313Z,14.30
2019-03-21T10:58:22.069Z,14.20
2019-03-21T11:00:49.795Z,13.90
2019-03-21T11:03:17.561Z,14.00
2019-03-21T11:05:45.401Z,13.80
2019-03-21T11:08:13.157Z,13.60
2019-03-21T11:10:40.933Z,13.90
2019-03-21T11:13:08.765Z,13.90
2019-03-21T11:15:36.700Z,13.90
2019-03-21T11:18:04.651Z,14.60
2019-03-21T11:20:33.828Z,14.80
2019-03-21T11:23:01.705Z,14.50
2019-03-21T11:25:29.518Z,14.60
2019-03-21T11:27:57.260Z,14.70
2019-03-21T11:30:33.058Z,14.40
2019-03-21T11:33:01.303Z,14.50
2019-03-21T11:35:29.713Z,15.10
2019-03-21T11:37:57.445Z,15.80
2019-03-21T11:40:25.316Z,15.90
2019-03-21T11:42:53.089Z,15.80
2019-03-21T11:45:20.854Z,15.20
2019-03-21T11:47:48.703Z,14.80
2019-03-21T11:50:16.539Z,14.90
2019-03-21T11:52:44.261Z,15.10
2019-03-21T11:55:12.458Z,14.90
2019-03-21T11:57:40.187Z,15.40
2019-03-21T12:00:08.145Z,15.40
2019-03-21T12:02:36.023Z,15.10
2019-03-21T12:05:04.309Z,15.10
2019-03-21T12:07:32.041Z,15.20
2019-03-21T12:09:59.791Z,14.60
2019-03-21T12:12:27.513Z,14.20
2019-03-21T12:14:55.373Z,14.30
2019-03-21T12:17:23.111Z,14.20
2019-03-21T12:19:50.847Z,13.90
2019-03-21T12:22:29.158Z,14.40
2019-03-21T12:24:48.224Z,14.50
2019-03-21T12:27:15.950Z,15.00
2019-03-21T12:29:43.697Z,14.90
2019-03-21T12:32:11.465Z,15.10
2019-03-21T12:34:39.190Z,15.30
2019-03-21T12:37:06.935Z,15.90
2019-03-21T12:39:34.685Z,16.30
2019-03-21T12:42:02.513Z,16.00
2019-03-21T12:44:30.253Z,15.80
2019-03-21T12:46:58.096Z,15.90
2019-03-21T12:49:25.812Z,15.30
2019-03-21T12:51:53.567Z,15.50
2019-03-21T12:54:21.301Z,15.70
2019-03-21T12:56:49.053Z,15.80
2019-03-21T12:59:16.821Z,15.40
2019-03-21T13:01:44.665Z,15.40
2019-03-21T13:04:12.533Z,15.60
2019-03-21T13:06:40.279Z,15.30
2019-03-21T13:09:08.149Z,14.80
2019-03-21T13:11:35.911Z,14.60
2019-03-21T13:14:03.864Z,14.30
2019-03-21T13:16:31.722Z,14.50
2019-03-21T13:18:59.493Z,14.30
2019-03-21T13:21:27.236Z,14.20
2019-03-21T13:23:55.253Z,14.00
2019-03-21T13:26:23.003Z,14.00
2019-03-21T13:28:50.769Z,14.30
2019-03-21T13:31:18.531Z,14.50
2019-03-21T13:33:46.283Z,14.10
2019-03-21T13:36:14.017Z,14.40
2019-03-21T13:38:42.045Z,14.40
2019-03-21T13:41:09.804Z,14.60
2019-03-21T13:43:37.652Z,14.50
2019-03-21T13:46:05.410Z,14.30
2019-03-21T13:48:33.148Z,14.30
2019-03-21T13:51:00.887Z,14.40
2019-03-21T13:53:28.624Z,14.40
2019-03-21T13:55:56.376Z,14.40
2019-03-21T13:58:24.228Z,14.50
2019-03-21T14:00:51.970Z,14.00
2019-03-21T14:03:25.031Z,14.20
2019-03-21T14:05:49.349Z,14.10
2019-03-21T14:08:17.093Z,14.30
2019-03-21T14:10:44.937Z,14.40
2019-03-21T14:13:12.661Z,14.80
2019-03-21T14:15:40.402Z,14.90
2019-03-21T14:18:08.133Z,15.10
2019-03-21T14:20:35.853Z,15.20
2019-03-21T14:23:03.597Z,15.10
2019-03-21T14:25:31.329Z,15.10
2019-03-21T14:27:59.057Z,15.10
2019-03-21T14:30:26.810Z,15.20
2019-03-21T14:32:54.559Z,14.90
2019-03-21T14:35:22.277Z,14.60
2019-03-21T14:37:50.026Z,14.50
2019-03-21T14:40:17.861Z,14.00
2019-03-21T14:42:45.684Z,14.10
2019-03-21T14:45:14.753Z,13.80
2019-03-21T14:47:42.499Z,14.10
2019-03-21T14:50:11.358Z,14.30
2019-03-21T14:52:39.197Z,14.30
2019-03-21T14:55:07.659Z,14.30
2019-03-21T14:57:35.981Z,14.40
2019-03-21T15:00:05.723Z,14.40
2019-03-21T15:02:33.453Z,14.70
2019-03-21T15:05:01.192Z,15.00
2019-03-21T15:07:28.976Z,14.80
2019-03-21T15:09:56.720Z,14.70
2019-03-21T15:12:24.468Z,14.50
2019-03-21T15:14:52.210Z,14.30
2019-03-21T15:17:19.933Z,14.10
2019-03-21T15:19:47.678Z,14.00
2019-03-21T15:22:15.513Z,14.30
2019-03-21T15:24:43.252Z,14.10
2019-03-21T15:27:11.098Z,14.20
2019-03-21T15:29:38.841Z,14.30
2019-03-21T15:32:06.577Z,14.40
2019-03-21T15:34:34.333Z,14.10
2019-03-21T15:37:02.069Z,14.10
2019-03-21T15:39:29.801Z,14.00
2019-03-21T15:41:57.541Z,14.10
2019-03-21T15:44:25.428Z,14.10
2019-03-21T15:46:53.290Z,14.10
2019-03-21T15:49:21.037Z,13.90
2019-03-21T15:51:48.805Z,13.70
2019-03-21T15:54:16.532Z,13.80
2019-03-21T15:56:44.301Z,14.00
2019-03-21T15:59:12.150Z,14.20
2019-03-21T16:01:40.011Z,14.00
2019-03-21T16:04:07.781Z,14.30
2019-03-21T16:06:35.533Z,14.10
2019-03-21T16:09:05.349Z,14.10
2019-03-21T16:11:33.101Z,14.00
2019-03-21T16:14:01.037Z,14.00
2019-03-21T16:16:28.785Z,14.00
2019-03-21T16:18:56.601Z,14.10
2019-03-21T16:21:24.421Z,13.90
2019-03-21T16:24:04.231Z,13.70
2019-03-21T16:26:21.800Z,13.70
2019-03-21T16:28:49.641Z,13.90
2019-03-21T16:31:17.400Z,14.00
2019-03-21T16:33:45.144Z,13.80
2019-03-21T16:36:12.907Z,13.70
2019-03-21T16:38:40.835Z,13.60
2019-03-21T16:41:08.677Z,13.80
2019-03-21T16:43:36.538Z,13.90
2019-03-21T16:46:04.294Z,14.00
2019-03-21T16:48:32.052Z,14.00
2019-03-21T16:50:59.825Z,13.80
2019-03-21T16:53:27.599Z,13.60
2019-03-21T16:55:55.458Z,13.40
2019-03-21T16:58:23.305Z,12.90
2019-03-21T17:00:51.045Z,12.40
2019-03-21T17:03:18.805Z,12.40
2019-03-21T17:05:46.595Z,12.30
2019-03-21T17:08:14.325Z,12.10
2019-03-21T17:10:42.048Z,12.20
2019-03-21T17:13:10.240Z,12.00
2019-03-21T17:15:38.203Z,11.60
2019-03-21T17:18:05.956Z,11.40
2019-03-21T17:20:33.697Z,11.20
2019-03-21T17:23:01.426Z,11.20
2019-03-21T17:25:31.365Z,11.20
2019-03-21T17:27:59.093Z,11.20
2019-03-21T17:30:26.944Z,11.10
2019-03-21T17:32:54.685Z,10.90
2019-03-21T17:35:22.426Z,10.80
2019-03-21T17:37:50.260Z,10.70
2019-03-21T17:40:18.041Z,10.40
2019-03-21T17:42:45.777Z,10.10
2019-03-21T17:45:14.390Z,9.80
2019-03-21T17:47:42.194Z,9.70
2019-03-21T17:50:11.061Z,9.60
2019-03-21T17:52:38.797Z,9.30
2019-03-21T17:55:07.753Z,9.40
2019-03-21T17:57:35.493Z,9.50
2019-03-21T18:00:05.970Z,9.60
2019-03-21T18:02:33.752Z,9.70
2019-03-21T18:05:01.625Z,9.60
2019-03-21T18:07:29.365Z,9.40
2019-03-21T18:09:57.111Z,9.10
2019-03-21T18:12:24.869Z,9.00
2019-03-21T18:14:52.609Z,8.80
2019-03-21T18:17:20.392Z,8.70
2019-03-21T18:19:48.141Z,8.60
2019-03-21T18:22:15.868Z,8.50
2019-03-21T18:24:53.243Z,8.30
2019-03-21T18:27:13.359Z,8.30
2019-03-21T18:29:41.110Z,8.10
2019-03-21T18:32:08.859Z,8.00
2019-03-21T18:34:36.652Z,7.90
2019-03-21T18:37:04.417Z,7.70
2019-03-21T18:39:32.146Z,7.60
2019-03-21T18:41:59.995Z,7.50
2019-03-21T18:44:27.842Z,7.50
2019-03-21T18:46:55.727Z,7.60
2019-03-21T18:49:23.505Z,7.40
2019-03-21T18:51:51.329Z,7.30
2019-03-21T18:54:19.183Z,7.20
2019-03-21T18:56:46.970Z,7.20
2019-03-21T18:59:14.753Z,7.30
2019-03-21T19:01:42.696Z,7.30
2019-03-21T19:04:10.518Z,7.10
2019-03-21T19:06:38.506Z,7.10
2019-03-21T19:09:07.126Z,7.10
2019-03-21T19:11:34.880Z,6.90
2019-03-21T19:14:02.673Z,7.00
2019-03-21T19:16:32.097Z,6.90
2019-03-21T19:19:00.090Z,6.90
2019-03-21T19:21:27.929Z,6.70
2019-03-21T19:23:55.665Z,6.60
2019-03-21T19:26:23.406Z,6.40
2019-03-21T19:28:51.141Z,6.30
2019-03-21T19:31:18.992Z,6.10
2019-03-21T19:33:46.741Z,6.10
2019-03-21T19:36:14.468Z,6.00
2019-03-21T19:38:42.197Z,6.10
2019-03-21T19:41:10.042Z,6.00
2019-03-21T19:43:37.765Z,5.90
2019-03-21T19:46:05.517Z,5.90
2019-03-21T19:48:33.268Z,5.90
2019-03-21T19:51:01.018Z,6.00
2019-03-21T19:53:29.089Z,6.00
2019-03-21T19:56:07.996Z,6.00
2019-03-21T19:58:26.508Z,6.00
2019-03-21T20:00:54.261Z,6.00
2019-03-21T20:03:41.248Z,6.00
2019-03-21T20:06:08.961Z,5.90
2019-03-21T20:08:36.849Z,6.00
2019-03-21T20:11:04.770Z,5.80
2019-03-21T20:13:32.517Z,5.70
2019-03-21T20:16:00.148Z,5.50
2019-03-21T20:18:27.902Z,5.40
2019-03-21T20:20:55.633Z,5.30
2019-03-21T20:23:23.362Z,5.20
2019-03-21T20:25:51.305Z,5.20
2019-03-21T20:28:19.026Z,5.10
2019-03-21T20:30:46.868Z,5.10
2019-03-21T20:33:14.613Z,4.90
2019-03-21T20:35:42.346Z,5.00
2019-03-21T20:38:10.083Z,5.10
2019-03-21T20:40:39.142Z,5.10
2019-03-21T20:43:07.121Z,5.10
2019-03-21T20:45:34.972Z,5.10
2019-03-21T20:48:02.715Z,5.00
2019-03-21T20:50:30.456Z,4.80
2019-03-21T20:52:58.253Z,4.70
2019-03-21T20:55:26.030Z,4.50
2019-03-21T20:57:53.772Z,4.60
2019-03-21T21:00:22.709Z,4.50
2019-03-21T21:02:52.360Z,4.50
2019-03-21T21:05:22.810Z,4.40
2019-03-21T21:07:49.952Z,4.50
2019-03-21T21:10:17.709Z,4.60
2019-03-21T21:12:45.432Z,4.60
2019-03-21T21:15:13.828Z,4.50
2019-03-21T21:17:43.088Z,4.30
2019-03-21T21:20:11.457Z,4.30
2019-03-21T21:22:39.204Z,4.30
2019-03-21T21:25:07.623Z,4.20
2019-03-21T21:27:35.341Z,4.20
2019-03-21T21:30:04.845Z,4.10
2019-03-21T21:32:32.608Z,4.10
2019-03-21T21:35:00.387Z,4.20
2019-03-21T21:37:28.185Z,4.10
2019-03-21T21:39:55.949Z,3.90
2019-03-21T21:42:23.759Z,3.80
2019-03-21T21:44:51.429Z,3.80
2019-03-21T21:47:19.373Z,3.70
2019-03-21T21:49:47.181Z,3.60
2019-03-21T21:52:14.928Z,3.60
2019-03-21T21:54:42.781Z,3.70
2019-03-21T21:57:10.545Z,3.80
2019-03-21T21:59:38.300Z,3.70
2019-03-21T22:02:06.045Z,3.60
2019-03-21T22:04:33.875Z,3.60
2019-03-21T22:07:01.613Z,3.60
2019-03-21T22:09:29.360Z,3.60
2019-03-21T22:11:57.118Z,3.50
2019-03-21T22:14:24.899Z,3.50
2019-03-21T22:16:52.696Z,3.60
2019-03-21T22:19:20.424Z,3.60
2019-03-21T22:21:48.180Z,3.40
2019-03-21T22:24:16.022Z,3.40
2019-03-21T22:26:43.776Z,3.40
2019-03-21T22:29:11.538Z,3.30
2019-03-21T22:31:39.289Z,3.20
2019-03-21T22:34:07.016Z,3.30
2019-03-21T22:36:34.769Z,3.30
2019-03-21T22:39:04.444Z,3.40
2019-03-21T22:41:32.199Z,3.30
2019-03-21T22:44:00.099Z,3.30
2019-03-21T22:46:27.890Z,3.10
2019-03-21T22:48:55.620Z,3.00
2019-03-21T22:51:23.464Z,3.10
2019-03-21T22:53:51.213Z,3.20
2019-03-21T22:56:19.946Z,3.10
2019-03-21T22:58:47.704Z,3.00
2019-03-21T23:01:15.641Z,3.00
2019-03-21T23:03:43.377Z,3.10
2019-03-21T23:06:11.108Z,3.00
2019-03-21T23:08:38.868Z,3.00
2019-03-21T23:11:06.592Z,3.00
2019-03-21T23:13:34.324Z,2.90
2019-03-21T23:16:02.069Z,2.80
2019-03-21T23:18:29.806Z,2.90
2019-03-21T23:20:57.555Z,3.00
2019-03-21T23:23:25.589Z,2.90
2019-03-21T23:25:53.333Z,2.90
2019-03-21T23:28:21.221Z,2.90
2019-03-21T23:30:48.972Z,2.80
2019-03-21T23:33:16.736Z,2.80
2019-03-21T23:35:44.469Z,2.70
2019-03-21T23:38:12.209Z,2.70
2019-03-21T23:40:40.121Z,2.70
2019-03-21T23:43:07.866Z,2.70
2019-03-21T23:45:35.604Z,2.70
2019-03-21T23:48:03.317Z,2.70
2019-03-21T23:50:31.146Z,2.70
2019-03-21T23:52:58.884Z,2.50
2019-03-21T23:55:26.601Z,2.40
2019-03-21T23:57:54.464Z,2.50
